sensor_id;sensor_type;location;lat;lon;timestamp;pressure;altitude;pressure_sealevel;temperature;humidity
18652;BME280;9455;54.302;10.124;2024-01-30T00:01:52;102653.56;;;6.95;100.00
18652;BME280;9455;54.302;10.124;2024-01-30T00:04:20;102657.44;;;7.08;100.00
18652;BME280;9455;54.302;10.124;2024-01-30T00:06:46;102657.31;;;7.11;100.00
18652;BME280;9455;54.302;10.124;2024-01-30T00:09:13;102662.63;;;7.11;100.00
18652;BME280;9455;54.302;10.124;2024-01-30T00:11:40;102653.00;;;7.08;100.00
18652;BME280;9455;54.302;10.124;2024-01-30T00:14:07;102657.56;;;7.05;100.00
18652;BME280;9455;54.302;10.124;2024-01-30T00:16:33;102653.88;;;7.09;100.00
18652;BME280;9455;54.302;10.124;2024-01-30T00:19:00;102655.66;;;7.08;100.00
18652;BME280;9455;54.302;10.124;2024-01-30T00:21:29;102652.13;;;7.08;100.00
18652;BME280;9455;54.302;10.124;2024-01-30T00:23:55;102650.28;;;7.10;100.00
18652;BME280;9455;54.302;10.124;2024-01-30T00:26:22;102639.81;;;7.07;100.00
18652;BME280;9455;54.302;10.124;2024-01-30T00:28:48;102635.16;;;7.12;100.00
18652;BME280;9455;54.302;10.124;2024-01-30T00:31:15;102632.38;;;7.15;100.00
18652;BME280;9455;54.302;10.124;2024-01-30T00:33:42;102639.81;;;7.07;100.00
18652;BME280;9455;54.302;10.124;2024-01-30T00:36:09;102638.34;;;7.00;100.00
18652;BME280;9455;54.302;10.124;2024-01-30T00:38:37;102633.03;;;7.00;100.00
18652;BME280;9455;54.302;10.124;2024-01-30T00:41:06;102644.41;;;7.02;100.00
18652;BME280;9455;54.302;10.124;2024-01-30T00:43:33;102646.94;;;7.05;100.00
18652;BME280;9455;54.302;10.124;2024-01-30T00:45:59;102647.00;;;7.03;100.00
18652;BME280;9455;54.302;10.124;2024-01-30T00:48:26;102643.53;;;7.03;100.00
18652;BME280;9455;54.302;10.124;2024-01-30T00:50:53;102645.22;;;7.04;100.00
18652;BME280;9455;54.302;10.124;2024-01-30T00:53:19;102648.06;;;6.99;100.00
18652;BME280;9455;54.302;10.124;2024-01-30T00:55:47;102646.22;;;7.01;100.00
18652;BME280;9455;54.302;10.124;2024-01-30T00:58:14;102650.53;;;7.04;100.00
18652;BME280;9455;54.302;10.124;2024-01-30T01:00:40;102644.16;;;7.08;100.00
18652;BME280;9455;54.302;10.124;2024-01-30T01:03:07;102650.28;;;7.10;100.00
18652;BME280;9455;54.302;10.124;2024-01-30T01:05:34;102639.28;;;6.99;100.00
18652;BME280;9455;54.302;10.124;2024-01-30T01:08:00;102647.75;;;7.07;100.00
18652;BME280;9455;54.302;10.124;2024-01-30T01:10:27;102650.53;;;7.04;100.00
18652;BME280;9455;54.302;10.124;2024-01-30T01:12:55;102640.63;;;7.09;100.00
18652;BME280;9455;54.302;10.124;2024-01-30T01:15:21;102647.81;;;7.05;100.00
18652;BME280;9455;54.302;10.124;2024-01-30T01:17:48;102653.78;;;7.10;100.00
18652;BME280;9455;54.302;10.124;2024-01-30T01:20:15;102647.81;;;7.05;100.00
18652;BME280;9455;54.302;10.124;2024-01-30T01:22:41;102644.22;;;7.06;100.00
18652;BME280;9455;54.302;10.124;2024-01-30T01:25:08;102641.41;;;7.11;100.00
18652;BME280;9455;54.302;10.124;2024-01-30T01:27:35;102644.66;;;6.97;100.00
18652;BME280;9455;54.302;10.124;2024-01-30T01:30:09;102637.09;;;7.08;100.00
18652;BME280;9455;54.302;10.124;2024-01-30T01:32:36;102636.09;;;7.11;100.00
18652;BME280;9455;54.302;10.124;2024-01-30T01:35:04;102635.16;;;7.12;100.00
18652;BME280;9455;54.302;10.124;2024-01-30T01:37:30;102636.22;;;7.08;100.00
18652;BME280;9455;54.302;10.124;2024-01-30T01:39:57;102628.94;;;7.13;100.00
18652;BME280;9455;54.302;10.124;2024-01-30T01:42:24;102627.75;;;7.20;100.00
18652;BME280;9455;54.302;10.124;2024-01-30T01:44:50;102616.31;;;7.18;100.00
18652;BME280;9455;54.302;10.124;2024-01-30T01:47:18;102624.41;;;7.15;100.00
18652;BME280;9455;54.302;10.124;2024-01-30T01:49:45;102621.50;;;7.21;100.00
18652;BME280;9455;54.302;10.124;2024-01-30T01:52:12;102612.72;;;7.19;100.00
18652;BME280;9455;54.302;10.124;2024-01-30T01:54:39;102607.16;;;7.25;100.00
18652;BME280;9455;54.302;10.124;2024-01-30T01:57:05;102605.19;;;7.30;100.00
18652;BME280;9455;54.302;10.124;2024-01-30T01:59:32;102604.38;;;7.28;100.00
18652;BME280;9455;54.302;10.124;2024-01-30T02:02:00;102603.81;;;7.21;100.00
18652;BME280;9455;54.302;10.124;2024-01-30T02:04:29;102608.88;;;7.26;100.00
18652;BME280;9455;54.302;10.124;2024-01-30T02:06:56;102605.38;;;7.25;100.00
18652;BME280;9455;54.302;10.124;2024-01-30T02:09:23;102601.91;;;7.23;100.00
18652;BME280;9455;54.302;10.124;2024-01-30T02:11:49;102600.91;;;7.26;100.00
18652;BME280;9455;54.302;10.124;2024-01-30T02:14:16;102599.41;;;7.20;100.00
18652;BME280;9455;54.302;10.124;2024-01-30T02:16:43;102603.13;;;7.16;100.00
18652;BME280;9455;54.302;10.124;2024-01-30T02:19:09;102607.28;;;7.22;100.00
18652;BME280;9455;54.302;10.124;2024-01-30T02:21:38;102601.28;;;7.18;100.00
18652;BME280;9455;54.302;10.124;2024-01-30T02:24:05;102601.84;;;7.05;100.00
18652;BME280;9455;54.302;10.124;2024-01-30T02:26:32;102597.50;;;7.04;100.00
18652;BME280;9455;54.302;10.124;2024-01-30T02:28:59;102590.59;;;7.00;100.00
18652;BME280;9455;54.302;10.124;2024-01-30T02:31:25;102588.25;;;6.92;100.00
18652;BME280;9455;54.302;10.124;2024-01-30T02:33:52;102591.03;;;6.89;100.00
18652;BME280;9455;54.302;10.124;2024-01-30T02:36:19;102587.53;;;6.89;100.00
18652;BME280;9455;54.302;10.124;2024-01-30T02:38:47;102573.72;;;6.81;100.00
18652;BME280;9455;54.302;10.124;2024-01-30T02:41:13;102568.59;;;6.78;100.00
18652;BME280;9455;54.302;10.124;2024-01-30T02:43:40;102557.31;;;6.73;100.00
18652;BME280;9455;54.302;10.124;2024-01-30T02:46:06;102552.94;;;6.72;100.00
18652;BME280;9455;54.302;10.124;2024-01-30T02:48:33;102545.91;;;6.71;100.00
18652;BME280;9455;54.302;10.124;2024-01-30T02:50:59;102545.28;;;6.64;100.00
18652;BME280;9455;54.302;10.124;2024-01-30T02:53:26;102543.72;;;6.60;100.00
18652;BME280;9455;54.302;10.124;2024-01-30T02:55:54;102539.00;;;6.47;100.00
18652;BME280;9455;54.302;10.124;2024-01-30T02:58:20;102538.06;;;6.48;100.00
18652;BME280;9455;54.302;10.124;2024-01-30T03:00:47;102539.78;;;6.49;100.00
18652;BME280;9455;54.302;10.124;2024-01-30T03:03:14;102527.59;;;6.45;100.00
18652;BME280;9455;54.302;10.124;2024-01-30T03:05:40;102531.41;;;6.38;100.00
18652;BME280;9455;54.302;10.124;2024-01-30T03:08:07;102523.53;;;6.36;100.00
18652;BME280;9455;54.302;10.124;2024-01-30T03:10:33;102516.44;;;6.37;100.00
18652;BME280;9455;54.302;10.124;2024-01-30T03:13:01;102515.53;;;6.38;100.00
18652;BME280;9455;54.302;10.124;2024-01-30T03:15:28;102513.94;;;6.34;100.00
18652;BME280;9455;54.302;10.124;2024-01-30T03:17:55;102508.69;;;6.32;100.00
18652;BME280;9455;54.302;10.124;2024-01-30T03:20:21;102512.94;;;6.36;100.00
18652;BME280;9455;54.302;10.124;2024-01-30T03:22:48;102514.28;;;6.25;100.00
18652;BME280;9455;54.302;10.124;2024-01-30T03:25:14;102524.22;;;6.20;100.00
18652;BME280;9455;54.302;10.124;2024-01-30T03:27:41;102521.69;;;6.17;100.00
18652;BME280;9455;54.302;10.124;2024-01-30T03:30:09;102529.78;;;6.14;100.00
18652;BME280;9455;54.302;10.124;2024-01-30T03:32:36;102525.66;;;6.07;100.00
18652;BME280;9455;54.302;10.124;2024-01-30T03:35:03;102524.00;;;6.04;100.00
18652;BME280;9455;54.302;10.124;2024-01-30T03:37:30;102527.63;;;6.02;100.00
18652;BME280;9455;54.302;10.124;2024-01-30T03:39:56;102527.88;;;5.96;100.00
18652;BME280;9455;54.302;10.124;2024-01-30T03:42:23;102529.75;;;5.92;100.00
18652;BME280;9455;54.302;10.124;2024-01-30T03:44:50;102526.16;;;5.95;100.00
18652;BME280;9455;54.302;10.124;2024-01-30T03:47:20;102533.09;;;5.97;100.00
18652;BME280;9455;54.302;10.124;2024-01-30T03:49:47;102534.88;;;5.97;100.00
18652;BME280;9455;54.302;10.124;2024-01-30T03:52:13;102528.72;;;5.96;100.00
18652;BME280;9455;54.302;10.124;2024-01-30T03:54:40;102524.28;;;5.97;100.00
18652;BME280;9455;54.302;10.124;2024-01-30T03:57:06;102522.69;;;5.93;100.00
18652;BME280;9455;54.302;10.124;2024-01-30T03:59:33;102524.59;;;5.89;100.00
18652;BME280;9455;54.302;10.124;2024-01-30T04:02:00;102526.50;;;5.86;100.00
18652;BME280;9455;54.302;10.124;2024-01-30T04:04:28;102528.34;;;5.84;100.00
18652;BME280;9455;54.302;10.124;2024-01-30T04:06:54;102530.97;;;5.84;100.00
18652;BME280;9455;54.302;10.124;2024-01-30T04:09:21;102525.75;;;5.82;100.00
18652;BME280;9455;54.302;10.124;2024-01-30T04:11:47;102522.47;;;5.75;100.00
18652;BME280;9455;54.302;10.124;2024-01-30T04:14:15;102516.59;;;5.67;100.00
18652;BME280;9455;54.302;10.124;2024-01-30T04:16:41;102514.63;;;5.72;100.00
18652;BME280;9455;54.302;10.124;2024-01-30T04:19:08;102514.06;;;5.64;100.00
18652;BME280;9455;54.302;10.124;2024-01-30T04:21:36;102508.72;;;5.66;100.00
18652;BME280;9455;54.302;10.124;2024-01-30T04:24:02;102507.97;;;5.62;100.00
18652;BME280;9455;54.302;10.124;2024-01-30T04:26:29;102505.75;;;5.73;100.00
18652;BME280;9455;54.302;10.124;2024-01-30T04:28:56;102509.78;;;5.62;100.00
18652;BME280;9455;54.302;10.124;2024-01-30T04:31:22;102502.69;;;5.62;100.00
18652;BME280;9455;54.302;10.124;2024-01-30T04:33:49;102508.22;;;5.56;100.00
18652;BME280;9455;54.302;10.124;2024-01-30T04:36:16;102506.47;;;5.55;100.00
18652;BME280;9455;54.302;10.124;2024-01-30T04:38:44;102506.78;;;5.48;100.00
18652;BME280;9455;54.302;10.124;2024-01-30T04:41:11;102505.16;;;5.44;100.00
18652;BME280;9455;54.302;10.124;2024-01-30T04:43:37;102506.03;;;5.44;100.00
18652;BME280;9455;54.302;10.124;2024-01-30T04:46:04;102509.50;;;5.46;100.00
18652;BME280;9455;54.302;10.124;2024-01-30T04:48:30;102511.88;;;5.52;100.00
18652;BME280;9455;54.302;10.124;2024-01-30T04:50:57;102517.53;;;5.43;100.00
18652;BME280;9455;54.302;10.124;2024-01-30T04:53:23;102511.09;;;5.50;100.00
18652;BME280;9455;54.302;10.124;2024-01-30T04:55:52;102510.59;;;5.41;100.00
18652;BME280;9455;54.302;10.124;2024-01-30T04:58:18;102513.81;;;5.49;100.00
18652;BME280;9455;54.302;10.124;2024-01-30T05:00:45;102503.59;;;5.38;100.00
18652;BME280;9455;54.302;10.124;2024-01-30T05:03:16;102503.59;;;5.38;100.00
18652;BME280;9455;54.302;10.124;2024-01-30T05:05:43;102496.72;;;5.34;100.00
18652;BME280;9455;54.302;10.124;2024-01-30T05:08:09;102500.63;;;5.24;100.00
18652;BME280;9455;54.302;10.124;2024-01-30T05:10:36;102494.50;;;5.24;100.00
18652;BME280;9455;54.302;10.124;2024-01-30T05:13:04;102490.41;;;5.15;100.00
18652;BME280;9455;54.302;10.124;2024-01-30T05:15:31;102484.88;;;5.21;100.00
18652;BME280;9455;54.302;10.124;2024-01-30T05:17:57;102485.97;;;5.16;100.00
18652;BME280;9455;54.302;10.124;2024-01-30T05:20:24;102485.97;;;5.16;100.00
18652;BME280;9455;54.302;10.124;2024-01-30T05:22:53;102486.16;;;5.11;100.00
18652;BME280;9455;54.302;10.124;2024-01-30T05:25:19;102487.06;;;5.10;100.00
18652;BME280;9455;54.302;10.124;2024-01-30T05:27:46;102486.38;;;5.05;100.00
18652;BME280;9455;54.302;10.124;2024-01-30T05:30:14;102484.47;;;5.09;100.00
18652;BME280;9455;54.302;10.124;2024-01-30T05:32:41;102492.44;;;5.07;100.00
18652;BME280;9455;54.302;10.124;2024-01-30T05:35:07;102488.66;;;5.14;100.00
18652;BME280;9455;54.302;10.124;2024-01-30T05:37:34;102486.88;;;5.15;100.00
18652;BME280;9455;54.302;10.124;2024-01-30T05:40:01;102482.53;;;5.14;100.00
18652;BME280;9455;54.302;10.124;2024-01-30T05:42:28;102469.47;;;5.09;100.00
18652;BME280;9455;54.302;10.124;2024-01-30T05:44:54;102471.06;;;5.13;100.00
18652;BME280;9455;54.302;10.124;2024-01-30T05:47:22;102469.53;;;5.08;100.00
18652;BME280;9455;54.302;10.124;2024-01-30T05:49:49;102469.47;;;5.09;100.00
18652;BME280;9455;54.302;10.124;2024-01-30T05:52:16;102465.91;;;5.10;100.00
18652;BME280;9455;54.302;10.124;2024-01-30T05:54:44;102464.19;;;5.09;100.00
18652;BME280;9455;54.302;10.124;2024-01-30T05:57:10;102474.66;;;5.12;100.00
18652;BME280;9455;54.302;10.124;2024-01-30T05:59:37;102468.66;;;5.07;100.00
18652;BME280;9455;54.302;10.124;2024-01-30T06:02:03;102475.63;;;5.10;100.00
18652;BME280;9455;54.302;10.124;2024-01-30T06:04:31;102481.75;;;5.10;100.00
18652;BME280;9455;54.302;10.124;2024-01-30T06:06:58;102473.38;;;4.99;100.00
18652;BME280;9455;54.302;10.124;2024-01-30T06:09:27;102482.81;;;5.06;100.00
18652;BME280;9455;54.302;10.124;2024-01-30T06:11:53;102483.50;;;5.11;100.00
18652;BME280;9455;54.302;10.124;2024-01-30T06:14:20;102482.47;;;5.15;100.00
18652;BME280;9455;54.302;10.124;2024-01-30T06:16:47;102480.28;;;5.03;100.00
18652;BME280;9455;54.302;10.124;2024-01-30T06:19:13;102469.22;;;4.92;100.00
18652;BME280;9455;54.302;10.124;2024-01-30T06:21:41;102462.91;;;4.96;100.00
18652;BME280;9455;54.302;10.124;2024-01-30T06:24:08;102471.72;;;4.97;100.00
18652;BME280;9455;54.302;10.124;2024-01-30T06:26:34;102475.22;;;4.97;100.00
18652;BME280;9455;54.302;10.124;2024-01-30T06:29:01;102471.44;;;5.04;100.00
18652;BME280;9455;54.302;10.124;2024-01-30T06:31:27;102469.50;;;4.85;100.00
18652;BME280;9455;54.302;10.124;2024-01-30T06:33:54;102463.38;;;4.84;100.00
18652;BME280;9455;54.302;10.124;2024-01-30T06:36:21;102458.59;;;4.94;100.00
18652;BME280;9455;54.302;10.124;2024-01-30T06:38:48;102455.91;;;4.95;100.00
18652;BME280;9455;54.302;10.124;2024-01-30T06:41:15;102455.78;;;4.98;100.00
18652;BME280;9455;54.302;10.124;2024-01-30T06:43:42;102455.78;;;4.98;100.00
18652;BME280;9455;54.302;10.124;2024-01-30T06:46:10;102465.38;;;5.01;100.00
18652;BME280;9455;54.302;10.124;2024-01-30T06:48:37;102463.56;;;5.03;100.00
18652;BME280;9455;54.302;10.124;2024-01-30T06:51:05;102456.47;;;5.03;100.00
18652;BME280;9455;54.302;10.124;2024-01-30T06:53:32;102453.72;;;5.06;100.00
18652;BME280;9455;54.302;10.124;2024-01-30T06:56:00;102444.84;;;5.07;100.00
18652;BME280;9455;54.302;10.124;2024-01-30T06:58:26;102439.72;;;5.04;100.00
18652;BME280;9455;54.302;10.124;2024-01-30T07:00:53;102444.03;;;5.07;100.00
18652;BME280;9455;54.302;10.124;2024-01-30T07:03:20;102436.19;;;5.04;100.00
18652;BME280;9455;54.302;10.124;2024-01-30T07:05:47;102437.97;;;5.03;100.00
18652;BME280;9455;54.302;10.124;2024-01-30T07:08:15;102448.09;;;5.15;100.00
18652;BME280;9455;54.302;10.124;2024-01-30T07:10:42;102446.50;;;5.11;100.00
18652;BME280;9455;54.302;10.124;2024-01-30T07:13:10;102437.78;;;5.08;100.00
18652;BME280;9455;54.302;10.124;2024-01-30T07:15:37;102440.56;;;5.05;100.00
18652;BME280;9455;54.302;10.124;2024-01-30T07:18:05;102437.84;;;5.06;100.00
18652;BME280;9455;54.302;10.124;2024-01-30T07:20:31;102443.78;;;5.13;100.00
18652;BME280;9455;54.302;10.124;2024-01-30T07:22:58;102450.28;;;5.04;100.00
18652;BME280;9455;54.302;10.124;2024-01-30T07:25:25;102441.53;;;5.02;100.00
18652;BME280;9455;54.302;10.124;2024-01-30T07:27:54;102452.13;;;5.02;100.00
18652;BME280;9455;54.302;10.124;2024-01-30T07:30:22;102438.13;;;4.99;100.00
18652;BME280;9455;54.302;10.124;2024-01-30T07:32:49;102432.78;;;5.00;100.00
18652;BME280;9455;54.302;10.124;2024-01-30T07:35:16;102427.94;;;5.13;100.00
18652;BME280;9455;54.302;10.124;2024-01-30T07:37:43;102432.69;;;5.03;100.00
18652;BME280;9455;54.302;10.124;2024-01-30T07:40:09;102435.25;;;5.05;100.00
18652;BME280;9455;54.302;10.124;2024-01-30T07:42:36;102427.28;;;5.06;100.00
18652;BME280;9455;54.302;10.124;2024-01-30T07:45:03;102429.19;;;5.03;100.00
18652;BME280;9455;54.302;10.124;2024-01-30T07:47:31;102426.19;;;5.12;100.00
18652;BME280;9455;54.302;10.124;2024-01-30T07:49:58;102425.09;;;5.17;100.00
18652;BME280;9455;54.302;10.124;2024-01-30T07:52:24;102419.84;;;5.16;100.00
18652;BME280;9455;54.302;10.124;2024-01-30T07:54:51;102423.97;;;5.23;100.00
18652;BME280;9455;54.302;10.124;2024-01-30T08:03:54;102411.53;;;5.26;100.00
18652;BME280;9455;54.302;10.124;2024-01-30T08:06:21;102414.78;;;5.33;100.00
18652;BME280;9455;54.302;10.124;2024-01-30T08:08:47;102409.75;;;5.27;100.00
18652;BME280;9455;54.302;10.124;2024-01-30T08:11:14;102413.88;;;5.34;100.00
18652;BME280;9455;54.302;10.124;2024-01-30T08:13:40;102399.66;;;5.36;100.00
18652;BME280;9455;54.302;10.124;2024-01-30T08:16:07;102394.38;;;5.36;100.00
18652;BME280;9455;54.302;10.124;2024-01-30T08:18:34;102390.44;;;5.46;100.00
18652;BME280;9455;54.302;10.124;2024-01-30T08:21:02;102391.16;;;5.50;100.00
18652;BME280;9455;54.302;10.124;2024-01-30T08:23:29;102386.44;;;5.58;100.00
18652;BME280;9455;54.302;10.124;2024-01-30T08:25:56;102380.94;;;5.62;100.00
18652;BME280;9455;54.302;10.124;2024-01-30T08:28:22;102374.69;;;5.65;100.00
18652;BME280;9455;54.302;10.124;2024-01-30T08:30:49;102363.63;;;5.75;100.00
18652;BME280;9455;54.302;10.124;2024-01-30T08:33:15;102366.59;;;5.68;100.00
18652;BME280;9455;54.302;10.124;2024-01-30T08:35:42;102370.66;;;5.76;100.00
18652;BME280;9455;54.302;10.124;2024-01-30T08:38:09;102366.16;;;5.78;100.00
18652;BME280;9455;54.302;10.124;2024-01-30T08:40:37;102372.09;;;5.85;100.00
18652;BME280;9455;54.302;10.124;2024-01-30T08:43:04;102373.09;;;5.83;100.00
18652;BME280;9455;54.302;10.124;2024-01-30T08:45:31;102371.97;;;5.88;100.00
18652;BME280;9455;54.302;10.124;2024-01-30T08:47:57;102366.72;;;5.87;100.00
18652;BME280;9455;54.302;10.124;2024-01-30T08:50:24;102368.31;;;5.91;100.00
18652;BME280;9455;54.302;10.124;2024-01-30T08:52:50;102370.72;;;5.97;100.00
18652;BME280;9455;54.302;10.124;2024-01-30T08:55:18;102358.81;;;6.07;100.00
18652;BME280;9455;54.302;10.124;2024-01-30T08:57:45;102364.91;;;6.09;100.00
18652;BME280;9455;54.302;10.124;2024-01-30T09:00:12;102367.94;;;6.20;100.00
18652;BME280;9455;54.302;10.124;2024-01-30T09:02:39;102373.97;;;6.23;100.00
18652;BME280;9455;54.302;10.124;2024-01-30T09:05:07;102383.16;;;6.35;100.00
18652;BME280;9455;54.302;10.124;2024-01-30T09:07:33;102391.94;;;6.37;100.00
18652;BME280;9455;54.302;10.124;2024-01-30T09:10:00;102393.50;;;6.41;100.00
18652;BME280;9455;54.302;10.124;2024-01-30T09:12:28;102395.09;;;6.45;100.00
18652;BME280;9455;54.302;10.124;2024-01-30T09:14:54;102395.72;;;6.50;100.00
18652;BME280;9455;54.302;10.124;2024-01-30T09:17:21;102409.41;;;6.61;100.00
18652;BME280;9455;54.302;10.124;2024-01-30T09:19:48;102387.38;;;6.59;100.00
18652;BME280;9455;54.302;10.124;2024-01-30T09:22:14;102383.53;;;6.66;100.00
18652;BME280;9455;54.302;10.124;2024-01-30T09:24:41;102396.53;;;6.72;100.00
18652;BME280;9455;54.302;10.124;2024-01-30T09:27:07;102392.78;;;6.76;100.00
18652;BME280;9455;54.302;10.124;2024-01-30T09:29:35;102402.06;;;6.86;100.00
18652;BME280;9455;54.302;10.124;2024-01-30T09:32:04;102387.59;;;6.93;100.00
18652;BME280;9455;54.302;10.124;2024-01-30T09:34:30;102391.19;;;6.92;100.00
18652;BME280;9455;54.302;10.124;2024-01-30T09:36:58;102386.44;;;6.98;100.00
18652;BME280;9455;54.302;10.124;2024-01-30T09:39:25;102390.31;;;7.10;100.00
18652;BME280;9455;54.302;10.124;2024-01-30T09:41:55;102371.69;;;7.11;100.00
18652;BME280;9455;54.302;10.124;2024-01-30T09:44:28;102347.66;;;7.14;100.00
18652;BME280;9455;54.302;10.124;2024-01-30T09:46:57;102344.41;;;7.08;100.00
18652;BME280;9455;54.302;10.124;2024-01-30T09:49:29;102353.81;;;7.15;100.00
18652;BME280;9455;54.302;10.124;2024-01-30T09:51:57;102358.28;;;7.14;100.00
18652;BME280;9455;54.302;10.124;2024-01-30T09:54:24;102356.97;;;7.23;100.00
18652;BME280;9455;54.302;10.124;2024-01-30T09:56:51;102370.06;;;7.26;100.00
18652;BME280;9455;54.302;10.124;2024-01-30T09:59:17;102382.91;;;7.35;100.00
18652;BME280;9455;54.302;10.124;2024-01-30T10:01:44;102387.13;;;7.39;100.00
18652;BME280;9455;54.302;10.124;2024-01-30T10:04:13;102388.56;;;7.46;100.00
18652;BME280;9455;54.302;10.124;2024-01-30T10:06:40;102388.13;;;7.55;100.00
18652;BME280;9455;54.302;10.124;2024-01-30T10:09:07;102378.00;;;7.44;100.00
18652;BME280;9455;54.302;10.124;2024-01-30T10:11:33;102378.34;;;7.55;100.00
18652;BME280;9455;54.302;10.124;2024-01-30T10:14:00;102373.38;;;7.49;100.00
18652;BME280;9455;54.302;10.124;2024-01-30T10:16:27;102373.22;;;7.52;100.00
18652;BME280;9455;54.302;10.124;2024-01-30T10:18:54;102383.38;;;7.61;100.00
18652;BME280;9455;54.302;10.124;2024-01-30T10:21:23;102380.72;;;7.61;100.00
18652;BME280;9455;54.302;10.124;2024-01-30T10:23:50;102375.34;;;7.63;100.00
18652;BME280;9455;54.302;10.124;2024-01-30T10:26:17;102370.75;;;7.66;100.00
18652;BME280;9455;54.302;10.124;2024-01-30T10:28:43;102372.38;;;7.69;100.00
18652;BME280;9455;54.302;10.124;2024-01-30T10:31:10;102369.88;;;7.66;100.00
18652;BME280;9455;54.302;10.124;2024-01-30T10:33:36;102353.06;;;7.65;100.00
18652;BME280;9455;54.302;10.124;2024-01-30T10:36:04;102342.88;;;7.75;100.00
18652;BME280;9455;54.302;10.124;2024-01-30T10:38:33;102347.84;;;7.81;100.00
18652;BME280;9455;54.302;10.124;2024-01-30T10:41:00;102352.41;;;7.79;100.00
18652;BME280;9455;54.302;10.124;2024-01-30T10:43:31;102341.94;;;7.93;100.00
18652;BME280;9455;54.302;10.124;2024-01-30T10:46:04;102335.84;;;7.91;100.00
18652;BME280;9455;54.302;10.124;2024-01-30T10:48:36;102335.31;;;8.01;100.00
18652;BME280;9455;54.302;10.124;2024-01-30T10:51:09;102330.00;;;8.01;100.00
18652;BME280;9455;54.302;10.124;2024-01-30T10:53:39;102324.91;;;8.14;100.00
18652;BME280;9455;54.302;10.124;2024-01-30T10:56:06;102330.75;;;8.20;100.00
18652;BME280;9455;54.302;10.124;2024-01-30T10:58:34;102326.44;;;8.18;100.00
18652;BME280;9455;54.302;10.124;2024-01-30T11:01:01;102332.41;;;8.23;100.00
18652;BME280;9455;54.302;10.124;2024-01-30T11:03:29;102323.63;;;8.21;100.00
18652;BME280;9455;54.302;10.124;2024-01-30T11:05:59;102320.19;;;8.19;100.00
18652;BME280;9455;54.302;10.124;2024-01-30T11:08:26;102312.22;;;8.19;100.00
18652;BME280;9455;54.302;10.124;2024-01-30T11:10:56;102319.25;;;8.20;100.00
18652;BME280;9455;54.302;10.124;2024-01-30T11:13:26;102320.63;;;8.28;100.00
18652;BME280;9455;54.302;10.124;2024-01-30T11:15:53;102332.72;;;8.34;100.00
18652;BME280;9455;54.302;10.124;2024-01-30T11:18:24;102342.31;;;8.36;100.00
18652;BME280;9455;54.302;10.124;2024-01-30T11:20:51;102353.63;;;8.40;100.00
18652;BME280;9455;54.302;10.124;2024-01-30T11:23:17;102352.97;;;8.36;100.00
18652;BME280;9455;54.302;10.124;2024-01-30T11:25:44;102346.94;;;8.33;100.00
18652;BME280;9455;54.302;10.124;2024-01-30T11:28:14;102337.00;;;8.36;100.00
18652;BME280;9455;54.302;10.124;2024-01-30T11:30:42;102338.97;;;8.33;100.00
18652;BME280;9455;54.302;10.124;2024-01-30T11:33:09;102337.78;;;8.38;100.00
18652;BME280;9455;54.302;10.124;2024-01-30T11:35:38;102338.03;;;8.34;100.00
18652;BME280;9455;54.302;10.124;2024-01-30T11:38:06;102331.94;;;8.32;100.00
18652;BME280;9455;54.302;10.124;2024-01-30T11:40:34;102328.31;;;8.33;100.00
18652;BME280;9455;54.302;10.124;2024-01-30T11:43:03;102318.16;;;8.41;100.00
18652;BME280;9455;54.302;10.124;2024-01-30T11:45:31;102328.00;;;8.39;100.00
18652;BME280;9455;54.302;10.124;2024-01-30T11:47:59;102331.47;;;8.41;100.00
18652;BME280;9455;54.302;10.124;2024-01-30T11:50:28;102326.06;;;8.43;100.00
18652;BME280;9455;54.302;10.124;2024-01-30T11:52:55;102304.59;;;8.45;100.00
18652;BME280;9455;54.302;10.124;2024-01-30T11:55:23;102300.16;;;8.46;100.00
18652;BME280;9455;54.302;10.124;2024-01-30T11:57:50;102286.88;;;8.46;100.00
18652;BME280;9455;54.302;10.124;2024-01-30T12:00:18;102279.94;;;8.59;100.00
18652;BME280;9455;54.302;10.124;2024-01-30T12:02:50;102274.09;;;8.52;100.00
18652;BME280;9455;54.302;10.124;2024-01-30T12:05:20;102268.97;;;8.65;100.00
18652;BME280;9455;54.302;10.124;2024-01-30T12:07:47;102265.53;;;8.63;100.00
18652;BME280;9455;54.302;10.124;2024-01-30T12:10:14;102296.34;;;8.67;100.00
18652;BME280;9455;54.302;10.124;2024-01-30T12:12:42;102295.56;;;8.65;100.00
18652;BME280;9455;54.302;10.124;2024-01-30T12:15:10;102295.56;;;8.65;100.00
18652;BME280;9455;54.302;10.124;2024-01-30T12:17:37;102295.13;;;8.73;100.00
18652;BME280;9455;54.302;10.124;2024-01-30T12:20:06;102295.22;;;8.71;100.00
18652;BME280;9455;54.302;10.124;2024-01-30T12:22:35;102286.13;;;8.75;100.00
18652;BME280;9455;54.302;10.124;2024-01-30T12:25:03;102278.25;;;8.74;100.00
18652;BME280;9455;54.302;10.124;2024-01-30T12:27:30;102276.28;;;8.77;100.00
18652;BME280;9455;54.302;10.124;2024-01-30T12:29:57;102284.41;;;8.74;100.00
18652;BME280;9455;54.302;10.124;2024-01-30T12:32:23;102276.28;;;8.77;100.00
18652;BME280;9455;54.302;10.124;2024-01-30T12:34:50;102272.56;;;8.80;100.00
18652;BME280;9455;54.302;10.124;2024-01-30T12:37:18;102271.66;;;8.81;100.00
18652;BME280;9455;54.302;10.124;2024-01-30T12:39:48;102270.69;;;8.82;100.00
18652;BME280;9455;54.302;10.124;2024-01-30T12:42:14;102261.09;;;8.79;100.00
18652;BME280;9455;54.302;10.124;2024-01-30T12:44:41;102279.44;;;8.84;100.00
18652;BME280;9455;54.302;10.124;2024-01-30T12:47:08;102281.19;;;8.85;100.00
18652;BME280;9455;54.302;10.124;2024-01-30T12:49:35;102272.00;;;8.90;100.00
18652;BME280;9455;54.302;10.124;2024-01-30T12:52:02;102277.41;;;8.89;100.00
18652;BME280;9455;54.302;10.124;2024-01-30T12:54:30;102261.00;;;8.81;100.00
18652;BME280;9455;54.302;10.124;2024-01-30T12:56:57;102276.53;;;8.88;100.00